Time;durP1;ratioP1;P1;durP2;ratioP2;P2;SDS_P1;SDS_P2;PMS_P1;PMS_P2;Temp;Humidity;BMP_temperature;BMP_pressure;BME280_temperature;BME280_humidity;BME280_pressure;Samples;Min_cycle;Max_cycle;Signal;HPM_P1;HPM_P2
2023/09/15 00:00:24;;;;;;;1.65;1.30;;;;;;;16.35;100.00;100297.03;4933888;28;20051;-90
2023/09/15 00:02:52;;;;;;;0.52;0.52;;;;;;;16.24;100.00;100275.16;4949183;28;20051;-91
2023/09/15 00:05:18;;;;;;;0.93;0.88;;;;;;;16.38;100.00;100301.69;4937380;28;20047;-90
2023/09/15 00:07:44;;;;;;;0.47;0.40;;;;;;;16.32;100.00;100292.38;4951332;28;20478;-89
2023/09/15 00:10:12;;;;;;;1.38;0.88;;;;;;;16.34;100.00;100295.47;4954556;28;20045;-90
2023/09/15 00:12:39;;;;;;;3.00;1.25;;;;;;;16.36;100.00;100298.59;4944027;28;20078;-91
2023/09/15 00:15:08;;;;;;;1.10;0.73;;;;;;;16.31;100.00;100291.59;4949330;28;20744;-90
2023/09/15 00:17:39;;;;;;;1.42;1.33;;;;;;;16.26;100.00;100291.47;4938253;28;20038;-90
2023/09/15 00:20:24;;;;;;;0.63;0.52;;;;;;;16.22;100.00;100285.25;4949502;28;20050;-90
2023/09/15 00:22:51;;;;;;;0.32;0.32;;;;;;;16.12;100.00;100278.13;4954849;28;20043;-89
2023/09/15 00:25:21;;;;;;;0.55;0.55;;;;;;;16.23;100.00;100295.19;4955893;28;20039;-90
2023/09/15 00:27:53;;;;;;;1.13;0.95;;;;;;;16.19;100.00;100294.59;4954151;28;20510;-90
2023/09/15 00:30:21;;;;;;;1.30;0.75;;;;;;;16.12;100.00;100297.72;4922733;28;20181;-90
2023/09/15 00:32:48;;;;;;;0.38;0.38;;;;;;;16.01;100.00;100277.84;4938204;28;20456;-91
2023/09/15 00:35:16;;;;;;;2.72;1.00;;;;;;;16.09;100.00;100295.88;4939496;28;20045;-91
2023/09/15 00:37:43;;;;;;;0.52;0.52;;;;;;;16.08;100.00;100297.09;4936452;29;20098;-90
2023/09/15 00:40:10;;;;;;;1.52;1.05;;;;;;;15.92;100.00;100278.63;4937602;29;20071;-90
2023/09/15 00:42:42;;;;;;;2.10;1.10;;;;;;;16.00;100.00;100293.84;4936408;28;20054;-90
2023/09/15 00:45:11;;;;;;;0.73;0.68;;;;;;;15.96;100.00;100281.25;4927714;28;20177;-90
2023/09/15 00:47:38;;;;;;;0.47;0.47;;;;;;;15.99;100.00;100289.50;4953672;28;20050;-90
2023/09/15 00:50:05;;;;;;;0.20;0.20;;;;;;;15.94;100.00;100272.53;4952422;28;20054;-90
2023/09/15 00:52:33;;;;;;;0.50;0.50;;;;;;;16.02;100.00;100287.75;4939563;28;20487;-90
2023/09/15 00:54:59;;;;;;;0.57;0.57;;;;;;;15.86;100.00;100272.88;4936716;29;20566;-90
2023/09/15 00:57:28;;;;;;;2.00;0.73;;;;;;;16.03;100.00;100292.13;4952555;28;20214;-90
2023/09/15 00:59:53;;;;;;;0.60;0.60;;;;;;;16.05;100.00;100295.25;4936124;28;20043;-90
2023/09/15 02:42:20;;;;;;;0.15;0.15;;;;;;;15.14;100.00;100325.88;4965720;28;20090;-90
2023/09/15 02:44:46;;;;;;;1.55;1.05;;;;;;;15.08;100.00;100316.56;4968466;28;20047;-91
2023/09/15 02:47:11;;;;;;;3.22;1.02;;;;;;;15.13;100.00;100321.53;4950357;28;20097;-90
2023/09/15 02:49:37;;;;;;;0.95;0.95;;;;;;;15.05;100.00;100314.66;4958144;28;20046;-90
2023/09/15 02:52:05;;;;;;;1.15;1.05;;;;;;;14.87;100.00;100293.84;4940936;28;20035;-91
2023/09/15 02:54:31;;;;;;;1.27;0.82;;;;;;;15.00;100.00;100302.09;4917165;28;20525;-90
2023/09/15 02:56:56;;;;;;;0.75;0.75;;;;;;;15.06;100.00;100310.63;4950552;28;20043;-90
2023/09/15 02:59:22;;;;;;;0.98;0.77;;;;;;;15.01;100.00;100314.03;4935215;28;20042;-90
2023/09/15 03:01:50;;;;;;;0.70;0.65;;;;;;;14.98;100.00;100317.75;4967542;28;20041;-90
2023/09/15 03:04:19;;;;;;;2.67;1.13;;;;;;;14.89;100.00;100307.31;4949752;28;20047;-89
2023/09/15 03:06:46;;;;;;;1.08;1.00;;;;;;;14.90;100.00;100300.50;4948975;28;20042;-90
2023/09/15 03:09:12;;;;;;;1.38;0.50;;;;;;;14.77;100.00;100281.06;4936630;28;20039;-90
2023/09/15 03:11:38;;;;;;;0.65;0.65;;;;;;;14.83;100.00;100304.38;4935563;28;20380;-90
2023/09/15 03:14:05;;;;;;;1.88;1.38;;;;;;;14.85;100.00;100307.47;4969855;28;20090;-90
2023/09/15 03:16:30;;;;;;;2.20;1.05;;;;;;;14.81;100.00;100300.47;4965835;28;20047;-90
2023/09/15 03:18:56;;;;;;;0.75;0.75;;;;;;;14.86;100.00;100311.81;4968186;28;20035;-90
2023/09/15 03:21:22;;;;;;;0.75;0.75;;;;;;;14.82;100.00;100302.03;4951491;28;20070;-90
2023/09/15 03:23:48;;;;;;;0.88;0.50;;;;;;;14.76;100.00;100299.03;4938761;28;20038;-90
2023/09/15 03:26:14;;;;;;;1.10;0.70;;;;;;;14.86;100.00;100297.88;4964630;28;20034;-90
2023/09/15 03:28:44;;;;;;;0.75;0.75;;;;;;;14.76;100.00;100293.47;4967204;28;20109;-90
2023/09/15 03:31:10;;;;;;;1.20;1.10;;;;;;;14.63;100.00;100270.47;4952217;28;20042;-90
2023/09/15 03:33:36;;;;;;;0.63;0.63;;;;;;;14.69;100.00;100282.59;4933692;28;20553;-90
2023/09/15 03:36:02;;;;;;;0.40;0.40;;;;;;;14.82;100.00;100297.22;4952082;28;20057;-90
2023/09/15 03:38:28;;;;;;;2.05;1.33;;;;;;;14.79;100.00;100309.31;4952415;28;20069;-90
2023/09/15 03:40:55;;;;;;;0.88;0.88;;;;;;;14.82;100.00;100313.19;4918649;28;20031;-90
2023/09/15 03:43:20;;;;;;;0.75;0.75;;;;;;;14.78;100.00;100307.75;4933079;29;20045;-91
2023/09/15 03:45:47;;;;;;;1.98;1.20;;;;;;;14.77;100.00;100317.38;4948393;28;20426;-90
2023/09/15 03:48:13;;;;;;;1.05;0.95;;;;;;;14.75;100.00;100308.69;4933786;28;20052;-88
2023/09/15 03:50:38;;;;;;;0.63;0.63;;;;;;;14.88;100.00;100328.88;4935821;28;20133;-90
2023/09/15 03:53:05;;;;;;;0.45;0.45;;;;;;;14.90;100.00;100325.66;4933720;28;20066;-90
2023/09/15 03:55:33;;;;;;;2.00;1.38;;;;;;;14.91;100.00;100324.41;4933946;29;20043;-91
2023/09/15 03:57:58;;;;;;;0.60;0.60;;;;;;;14.82;100.00;100316.78;4947464;28;20218;-91
2023/09/15 04:00:24;;;;;;;0.10;0.10;;;;;;;14.82;100.00;100319.56;4949811;28;20051;-90
2023/09/15 04:02:50;;;;;;;1.42;1.15;;;;;;;14.83;100.00;100323.13;4930907;28;20051;-90
2023/09/15 04:05:18;;;;;;;0.73;0.73;;;;;;;14.80;100.00;100315.69;4918865;28;20106;-90
2023/09/15 04:07:44;;;;;;;0.90;0.75;;;;;;;14.76;100.00;100329.00;4947055;28;20042;-90
2023/09/15 04:10:09;;;;;;;2.78;1.17;;;;;;;14.72;100.00;100320.00;4936281;28;20395;-90
2023/09/15 04:12:35;;;;;;;0.65;0.65;;;;;;;14.74;100.00;100329.47;4930760;28;20122;-91
2023/09/15 04:15:00;;;;;;;8.13;2.88;;;;;;;14.67;100.00;100324.16;4935339;28;20058;-91
2023/09/15 04:17:26;;;;;;;0.75;0.75;;;;;;;14.62;100.00;100321.97;4934571;28;20294;-90
2023/09/15 04:19:52;;;;;;;0.60;0.60;;;;;;;14.59;100.00;100327.69;4933752;28;20046;-90
2023/09/15 04:22:17;;;;;;;1.10;1.02;;;;;;;14.53;100.00;100323.91;4918892;28;20049;-90
2023/09/15 04:24:43;;;;;;;0.73;0.73;;;;;;;14.52;100.00;100327.97;4934872;28;20031;-91
2023/09/15 04:27:09;;;;;;;0.85;0.45;;;;;;;14.39;100.00;100322.47;4941595;28;20046;-91
2023/09/15 04:29:49;;;;;;;0.45;0.45;;;;;;;14.45;100.00;100329.78;4931279;28;20042;-90
2023/09/15 04:32:14;;;;;;;1.00;1.00;;;;;;;14.40;100.00;100338.72;4931924;28;20168;-90
2023/09/15 04:34:40;;;;;;;2.10;1.70;;;;;;;14.33;100.00;100318.66;4939390;28;20525;-91
2023/09/15 04:37:06;;;;;;;2.22;1.45;;;;;;;14.49;100.00;100343.59;4941298;28;20047;-90
2023/09/15 04:39:31;;;;;;;7.80;0.77;;;;;;;14.47;100.00;100337.69;4933880;28;20134;-91
2023/09/15 04:41:57;;;;;;;1.35;1.25;;;;;;;14.51;100.00;100343.94;4942291;28;20046;-91
2023/09/15 04:44:23;;;;;;;0.57;0.57;;;;;;;14.29;100.00;100315.22;4933423;28;20041;-91
2023/09/15 04:46:49;;;;;;;0.40;0.40;;;;;;;14.59;100.00;100350.78;4943697;28;20062;-91
2023/09/15 04:49:15;;;;;;;3.20;1.60;;;;;;;14.62;100.00;100349.88;4943111;28;20055;-92
2023/09/15 04:51:42;;;;;;;1.25;0.90;;;;;;;14.62;100.00;100355.47;4931513;28;20070;-92
2023/09/15 04:54:10;;;;;;;1.05;1.02;;;;;;;14.56;100.00;100339.78;4930642;28;20043;-92
2023/09/15 04:56:35;;;;;;;0.93;0.93;;;;;;;14.62;100.00;100354.69;4930794;28;20047;-93
2023/09/15 04:59:01;;;;;;;0.88;0.70;;;;;;;14.63;100.00;100350.66;4932686;28;20600;-93
2023/09/15 05:01:27;;;;;;;1.83;1.63;;;;;;;14.56;100.00;100345.34;4939826;28;20043;-91
2023/09/15 05:03:53;;;;;;;1.27;1.10;;;;;;;14.64;100.00;100363.38;4945730;28;20042;-91
2023/09/15 05:06:19;;;;;;;1.38;1.25;;;;;;;14.60;100.00;100343.94;4933930;28;20562;-93
2023/09/15 05:08:44;;;;;;;1.88;1.38;;;;;;;14.70;100.00;100359.53;4937412;28;20043;-92
2023/09/15 05:11:10;;;;;;;2.05;1.73;;;;;;;14.74;100.00;100356.59;4948300;28;20078;-91
2023/09/15 05:13:35;;;;;;;1.25;1.15;;;;;;;14.75;100.00;100353.38;4952876;28;20042;-92
2023/09/15 05:16:03;;;;;;;0.68;0.68;;;;;;;14.76;100.00;100352.09;4947565;28;20046;-91
2023/09/15 05:18:30;;;;;;;0.10;0.10;;;;;;;14.81;100.00;100357.09;4934309;28;20085;-93
2023/09/15 05:20:56;;;;;;;1.15;1.02;;;;;;;14.91;100.00;100355.91;4948152;28;20078;-91
2023/09/15 05:23:22;;;;;;;1.50;1.40;;;;;;;14.90;100.00;100348.78;4935020;28;20547;-91
2023/09/15 05:25:51;;;;;;;0.90;0.70;;;;;;;14.99;100.00;100364.78;4938746;28;20121;-92
2023/09/15 05:28:18;;;;;;;0.82;0.80;;;;;;;14.88;100.00;100345.66;4939358;28;20046;-91
2023/09/15 05:30:44;;;;;;;1.38;1.17;;;;;;;14.96;100.00;100339.78;4919619;28;20539;-91
2023/09/15 05:33:10;;;;;;;0.68;0.68;;;;;;;15.05;100.00;100353.78;4953479;28;20530;-92
2023/09/15 05:35:36;;;;;;;0.85;0.85;;;;;;;15.08;100.00;100353.66;4923052;28;20094;-91
2023/09/15 05:38:03;;;;;;;1.63;1.15;;;;;;;15.21;100.00;100353.53;4918225;29;20055;-91
2023/09/15 05:40:28;;;;;;;0.85;0.85;;;;;;;15.32;100.00;100357.47;4951361;28;20061;-93
2023/09/15 05:42:54;;;;;;;0.22;0.22;;;;;;;15.38;100.00;100349.22;4949690;28;20079;-92
2023/09/15 05:45:20;;;;;;;2.65;1.95;;;;;;;15.40;100.00;100335.59;4949944;29;20455;-93
2023/09/15 05:47:45;;;;;;;1.00;0.60;;;;;;;15.57;100.00;100348.03;4950918;28;20146;-91
2023/09/15 05:50:11;;;;;;;0.85;0.85;;;;;;;15.63;100.00;100349.00;4916340;29;20598;-93
2023/09/15 05:52:37;;;;;;;0.60;0.43;;;;;;;15.72;100.00;100334.25;4913680;29;21052;-93
2023/09/15 05:55:04;;;;;;;0.75;0.75;;;;;;;15.94;100.00;100343.25;4948948;28;20126;-94
2023/09/15 05:57:30;;;;;;;0.30;0.30;;;;;;;16.06;100.00;100336.72;4946537;29;20071;-94
2023/09/15 05:59:56;;;;;;;2.33;0.95;;;;;;;16.31;100.00;100356.00;4949567;29;20036;-93
2023/09/15 06:02:22;;;;;;;1.38;1.27;;;;;;;16.51;100.00;100351.91;4952141;28;20046;-93
2023/09/15 06:04:49;;;;;;;1.33;0.95;;;;;;;16.69;100.00;100352.69;4947214;28;20031;-92
2023/09/15 06:07:15;;;;;;;1.42;1.33;;;;;;;16.66;100.00;100334.00;4912125;29;20035;-93
2023/09/15 06:09:40;;;;;;;0.55;0.32;;;;;;;16.77;100.00;100345.50;4917199;29;20126;-93
2023/09/15 06:12:06;;;;;;;1.30;1.05;;;;;;;16.83;100.00;100347.63;4951145;28;20503;-92
2023/09/15 06:14:35;;;;;;;2.28;1.40;;;;;;;17.00;100.00;100343.22;4931605;29;20079;-92
2023/09/15 06:17:02;;;;;;;0.38;0.38;;;;;;;17.12;100.00;100336.63;4935629;28;20574;-92
2023/09/15 06:19:28;;;;;;;0.88;0.88;;;;;;;17.31;100.00;100354.91;4930531;29;20040;-93
2023/09/15 06:21:54;;;;;;;1.35;1.08;;;;;;;17.38;100.00;100343.34;4933723;29;20439;-92
2023/09/15 06:24:19;;;;;;;0.93;0.75;;;;;;;17.47;100.00;100343.28;4930723;29;20047;-92
2023/09/15 06:26:45;;;;;;;1.75;0.73;;;;;;;17.69;100.00;100349.41;4927770;29;20044;-91
2023/09/15 06:29:12;;;;;;;1.30;1.17;;;;;;;17.86;100.00;100346.16;4929242;29;20311;-91
2023/09/15 06:31:38;;;;;;;0.60;0.60;;;;;;;17.96;100.00;100327.97;4950830;29;20047;-96
2023/09/15 06:34:40;;;;;;;0.80;0.80;;;;;;;17.99;100.00;100302.56;4955529;29;20023;-96
2023/09/15 09:54:51;;;;;;;0.75;0.47;;;;;;;27.24;51.45;100330.91;4999014;28;20050;-96
2023/09/15 09:57:26;;;;;;;1.00;0.65;;;;;;;26.85;47.45;100312.44;4914178;29;20039;-91
2023/09/15 09:59:52;;;;;;;0.55;0.30;;;;;;;26.80;48.49;100304.75;4960706;28;20562;-92
2023/09/15 10:02:18;;;;;;;0.88;0.85;;;;;;;26.83;51.90;100317.88;4958053;28;20050;-92
2023/09/15 10:04:45;;;;;;;0.73;0.25;;;;;;;27.12;53.09;100335.28;4951071;29;20535;-92
2023/09/15 10:07:11;;;;;;;0.38;0.38;;;;;;;27.52;49.26;100325.47;4945287;28;20057;-92
2023/09/15 10:09:37;;;;;;;0.15;0.15;;;;;;;26.81;51.07;100320.50;4960089;28;20055;-92
2023/09/15 10:12:03;;;;;;;0.20;0.20;;;;;;;26.75;52.38;100304.84;4932672;29;20056;-92
2023/09/15 10:14:29;;;;;;;0.70;0.38;;;;;;;26.99;49.16;100332.38;4929759;29;20523;-93
2023/09/15 10:16:56;;;;;;;0.63;0.63;;;;;;;27.09;48.87;100300.13;4928193;29;20044;-92
2023/09/15 10:19:22;;;;;;;1.05;0.95;;;;;;;27.47;46.47;100323.50;4930708;29;20075;-93
2023/09/15 10:21:50;;;;;;;0.30;0.30;;;;;;;27.60;48.64;100306.41;4944108;29;20036;-92
2023/09/15 10:24:16;;;;;;;0.45;0.45;;;;;;;28.12;48.36;100296.22;4942274;29;20058;-92
2023/09/15 10:26:42;;;;;;;0.38;0.38;;;;;;;28.39;43.33;100308.31;4916642;29;20354;-92
2023/09/15 10:29:10;;;;;;;0.13;0.13;;;;;;;27.92;42.02;100288.34;4934337;29;20039;-92
2023/09/15 10:31:36;;;;;;;0.57;0.50;;;;;;;27.70;40.94;100309.56;4922811;28;20133;-92
2023/09/15 10:34:05;;;;;;;1.02;0.73;;;;;;;27.21;40.63;100300.69;4913170;29;20465;-92
2023/09/15 10:36:34;;;;;;;0.20;0.20;;;;;;;27.01;40.64;100287.84;4917595;29;20054;-92
2023/09/15 10:39:13;;;;;;;0.20;0.20;;;;;;;26.93;42.03;100301.19;4933689;29;20074;-92
2023/09/15 10:41:39;;;;;;;0.38;0.30;;;;;;;26.76;41.98;100283.59;4939179;28;20043;-92
2023/09/15 10:44:05;;;;;;;0.22;0.22;;;;;;;26.83;42.78;100292.28;4958798;28;20050;-92
2023/09/15 10:46:41;;;;;;;0.32;0.32;;;;;;;27.10;43.07;100280.94;4937080;29;20058;-92
2023/09/15 10:49:18;;;;;;;0.20;0.20;;;;;;;27.31;40.96;100294.00;4916280;29;20044;-92
2023/09/15 10:52:10;;;;;;;0.70;0.63;;;;;;;27.56;40.27;100308.03;4933895;29;20047;-92
2023/09/15 10:54:36;;;;;;;0.43;0.43;;;;;;;27.60;40.05;100280.75;4922356;28;20164;-92
2023/09/15 10:57:02;;;;;;;0.75;0.30;;;;;;;27.16;41.03;100275.91;4915080;29;20066;-93
2023/09/15 10:59:28;;;;;;;0.22;0.22;;;;;;;27.25;42.30;100318.22;4917425;29;20495;-91
2023/09/15 11:01:55;;;;;;;0.75;0.43;;;;;;;27.38;41.71;100299.03;4916816;29;20097;-92
2023/09/15 11:04:21;;;;;;;0.25;0.22;;;;;;;27.14;40.61;100284.22;4932229;29;20035;-91
2023/09/15 11:06:48;;;;;;;0.15;0.10;;;;;;;27.54;42.28;100302.88;4933814;28;20074;-92
2023/09/15 11:09:14;;;;;;;0.00;0.00;;;;;;;27.70;40.70;100295.31;4929689;28;20042;-93
2023/09/15 11:11:48;;;;;;;0.10;0.10;;;;;;;27.92;42.01;100314.00;4952187;28;20043;-91
2023/09/15 11:14:15;;;;;;;0.10;0.10;;;;;;;27.79;39.77;100304.16;4943533;28;20048;-91
2023/09/15 11:16:51;;;;;;;0.30;0.30;;;;;;;27.34;38.83;100300.66;4929541;29;20035;-92
2023/09/15 11:19:19;;;;;;;0.28;0.28;;;;;;;27.70;39.29;100278.97;4932258;29;20113;-92
2023/09/15 11:21:45;;;;;;;0.10;0.10;;;;;;;27.98;39.39;100291.88;4938333;29;20039;-93
2023/09/15 11:24:11;;;;;;;0.10;0.10;;;;;;;27.77;37.47;100292.56;4943471;28;20108;-92
2023/09/15 11:26:58;;;;;;;0.20;0.20;;;;;;;28.43;38.75;100306.63;4933636;29;20510;-93
2023/09/15 11:29:25;;;;;;;0.20;0.20;;;;;;;28.61;39.58;100285.69;4944025;29;20127;-92
2023/09/15 11:31:52;;;;;;;0.17;0.17;;;;;;;28.81;39.34;100269.91;4921124;28;20052;-93
2023/09/15 11:34:19;;;;;;;0.32;0.32;;;;;;;28.77;37.58;100280.91;4947322;28;20522;-92
2023/09/15 11:36:44;;;;;;;0.20;0.20;;;;;;;28.61;38.22;100262.88;4932686;28;20065;-92
2023/09/15 11:39:15;;;;;;;1.00;0.68;;;;;;;28.85;38.16;100258.13;4927903;28;20510;-93
2023/09/15 11:41:53;;;;;;;0.13;0.13;;;;;;;28.64;37.44;100261.75;4937869;28;20121;-93
2023/09/15 11:44:26;;;;;;;0.20;0.20;;;;;;;28.66;37.47;100269.75;4945090;28;20126;-93
2023/09/15 11:46:55;;;;;;;0.63;0.40;;;;;;;28.62;35.96;100258.69;4937480;28;20042;-92
2023/09/15 11:49:22;;;;;;;0.32;0.32;;;;;;;28.52;36.83;100254.03;4941777;28;20644;-92
2023/09/15 11:51:48;;;;;;;0.32;0.32;;;;;;;28.55;35.54;100245.09;4929402;28;20042;-92
2023/09/15 11:54:14;;;;;;;0.30;0.30;;;;;;;28.21;37.02;100264.38;4920926;29;20229;-93
2023/09/15 11:56:41;;;;;;;0.05;0.05;;;;;;;27.91;37.08;100249.75;4927243;28;20038;-91
2023/09/15 11:59:06;;;;;;;0.30;0.30;;;;;;;28.16;37.57;100268.13;4955287;28;20537;-93
2023/09/15 12:01:32;;;;;;;0.57;0.50;;;;;;;28.20;37.96;100257.16;4954187;28;20550;-93
2023/09/15 12:03:58;;;;;;;0.03;0.03;;;;;;;28.08;38.00;100239.50;4944653;28;20054;-93
2023/09/15 12:06:25;;;;;;;0.30;0.30;;;;;;;27.65;37.24;100254.22;4929162;28;20039;-93
2023/09/15 12:08:51;;;;;;;0.82;0.50;;;;;;;27.82;37.68;100226.09;4932869;28;20030;-93
2023/09/15 12:11:18;;;;;;;0.38;0.38;;;;;;;28.28;38.04;100223.75;4932012;28;20145;-93
2023/09/15 12:13:48;;;;;;;0.30;0.30;;;;;;;28.70;36.06;100236.72;4920408;28;20058;-93
2023/09/15 12:16:27;;;;;;;0.13;0.13;;;;;;;28.49;36.39;100233.09;4922749;28;20481;-93
2023/09/15 12:18:53;;;;;;;0.20;0.20;;;;;;;27.74;37.99;100222.41;4941911;28;20063;-93
2023/09/15 12:21:27;;;;;;;0.90;0.30;;;;;;;27.61;39.64;100231.00;4921456;28;20045;-94
2023/09/15 12:23:56;;;;;;;0.60;0.60;;;;;;;28.11;39.01;100203.44;4948470;28;20047;-92
2023/09/15 12:26:25;;;;;;;0.45;0.45;;;;;;;28.55;38.67;100238.66;4933233;29;20046;-93
2023/09/15 12:28:54;;;;;;;0.30;0.30;;;;;;;28.60;37.84;100221.38;4945871;28;20046;-93
2023/09/15 12:31:21;;;;;;;0.38;0.38;;;;;;;28.35;38.20;100216.59;4930455;28;20040;-95
2023/09/15 12:33:52;;;;;;;0.13;0.13;;;;;;;28.02;38.10;100201.81;4932503;29;20039;-93
2023/09/15 12:36:21;;;;;;;1.85;0.60;;;;;;;28.41;38.21;100226.53;4913532;29;20055;-93
2023/09/15 12:38:47;;;;;;;0.20;0.20;;;;;;;28.64;37.57;100198.19;4903512;28;20038;-93
2023/09/15 12:41:14;;;;;;;0.75;0.70;;;;;;;28.91;37.19;100208.13;4925366;28;20430;-93
2023/09/15 12:43:40;;;;;;;0.95;0.95;;;;;;;29.16;37.17;100225.59;4949086;28;20045;-93
2023/09/15 12:46:05;;;;;;;0.22;0.22;;;;;;;28.24;37.03;100198.44;4938444;29;20031;-92
2023/09/15 12:48:31;;;;;;;0.40;0.40;;;;;;;28.05;37.58;100205.63;4947719;28;20043;-94
2023/09/15 12:50:57;;;;;;;0.52;0.25;;;;;;;28.43;37.13;100197.47;4929296;29;20043;-93
2023/09/15 12:53:22;;;;;;;0.65;0.65;;;;;;;28.61;37.08;100182.19;4932202;29;20055;-93
2023/09/15 12:55:48;;;;;;;0.30;0.30;;;;;;;29.11;35.79;100197.97;4914530;29;20074;-94
2023/09/15 12:58:14;;;;;;;0.20;0.20;;;;;;;29.48;35.64;100210.94;4931051;29;20114;-93
2023/09/15 13:00:39;;;;;;;0.40;0.40;;;;;;;29.40;34.52;100210.16;4911715;29;20046;-93
2023/09/15 13:03:05;;;;;;;0.73;0.73;;;;;;;28.96;36.43;100175.78;4920162;28;20039;-93
2023/09/15 13:05:31;;;;;;;0.45;0.40;;;;;;;28.85;34.02;100183.91;4940337;28;20035;-92
2023/09/15 13:07:59;;;;;;;3.72;0.85;;;;;;;28.31;35.32;100159.88;4933405;29;20106;-93
2023/09/15 13:10:27;;;;;;;0.30;0.30;;;;;;;28.63;35.54;100168.88;4901621;28;20035;-93
2023/09/15 13:13:00;;;;;;;0.63;0.60;;;;;;;28.75;35.20;100151.50;4897812;29;20139;-93
2023/09/15 13:15:26;;;;;;;0.20;0.20;;;;;;;29.05;35.27;100137.38;4930343;28;20605;-93
2023/09/15 13:17:54;;;;;;;0.43;0.43;;;;;;;28.86;35.83;100151.94;4948548;28;20035;-93
2023/09/15 13:20:23;;;;;;;0.45;0.45;;;;;;;28.22;36.70;100163.25;4931513;28;20058;-93
2023/09/15 13:22:48;;;;;;;0.70;0.70;;;;;;;28.49;37.58;100150.34;4897988;29;20470;-92
2023/09/15 13:25:14;;;;;;;0.50;0.50;;;;;;;28.56;36.89;100155.31;4928981;29;20388;-93
2023/09/15 13:27:42;;;;;;;0.47;0.47;;;;;;;29.11;37.03;100178.75;4916734;29;20122;-94
2023/09/15 13:30:13;;;;;;;0.70;0.57;;;;;;;29.01;36.38;100152.03;4933715;28;20066;-93
2023/09/15 13:32:38;;;;;;;0.70;0.70;;;;;;;28.58;37.82;100123.38;4934086;29;20050;-92
2023/09/15 13:35:04;;;;;;;0.10;0.10;;;;;;;28.84;36.80;100153.81;4929540;29;20043;-94
2023/09/15 17:32:37;;;;;;;2.08;1.67;;;;;;;22.80;90.80;100146.97;4955298;29;20055;-96
2023/09/15 17:35:51;;;;;;;0.40;0.40;;;;;;;22.45;89.82;100112.84;4961491;29;20054;-96
2023/09/15 17:38:52;;;;;;;0.55;0.55;;;;;;;22.62;89.86;100147.50;5037102;23;20205;-96
2023/09/15 17:43:52;;;;;;;0.52;0.47;;;;;;;22.16;89.92;100100.81;4991990;28;20105;-96
2023/09/15 17:46:27;;;;;;;0.38;0.38;;;;;;;22.33;91.25;100138.31;5016991;23;20050;-96
2023/09/15 17:49:08;;;;;;;0.73;0.73;;;;;;;22.02;92.17;100118.81;4971888;28;20051;-96
2023/09/15 17:51:38;;;;;;;0.40;0.40;;;;;;;21.96;95.95;100115.22;4976551;28;20045;-96
2023/09/15 17:54:24;;;;;;;0.43;0.35;;;;;;;22.21;97.60;100158.59;5039630;23;20053;-96
2023/09/15 17:57:05;;;;;;;0.50;0.50;;;;;;;22.02;99.38;100146.28;4955664;28;20110;-96
2023/09/15 17:59:36;;;;;;;0.45;0.35;;;;;;;21.94;99.35;100146.03;4981556;28;20296;-96
2023/09/15 18:02:09;;;;;;;0.60;0.60;;;;;;;21.69;100.00;100118.78;4963002;28;20038;-96
2023/09/15 18:04:42;;;;;;;0.10;0.10;;;;;;;21.61;100.00;100112.09;4963908;28;20067;-96
2023/09/15 18:07:17;;;;;;;1.25;0.77;;;;;;;21.53;100.00;100119.53;4955286;28;20115;-96
2023/09/15 18:09:52;;;;;;;0.55;0.55;;;;;;;21.43;100.00;100126.69;4978542;28;20562;-96
2023/09/15 18:12:23;;;;;;;0.47;0.47;;;;;;;21.44;100.00;100131.03;4953574;28;20045;-96
2023/09/15 18:14:52;;;;;;;0.25;0.20;;;;;;;21.46;100.00;100153.91;4964138;28;20127;-95
2023/09/15 18:17:21;;;;;;;1.15;0.80;;;;;;;21.26;100.00;100135.91;4961853;28;20105;-96
2023/09/15 18:19:47;;;;;;;0.40;0.40;;;;;;;21.32;100.00;100164.88;4973431;28;20027;-96
2023/09/15 18:22:19;;;;;;;0.22;0.22;;;;;;;21.12;100.00;100156.59;4977877;28;20062;-96
2023/09/15 18:24:47;;;;;;;2.72;0.75;;;;;;;20.85;100.00;100168.50;4980345;28;20030;-96
2023/09/15 18:27:15;;;;;;;0.68;0.68;;;;;;;20.57;100.00;100139.41;4959498;28;20031;-96
2023/09/15 18:29:41;;;;;;;0.35;0.32;;;;;;;20.50;100.00;100145.50;4977406;28;20046;-96
2023/09/15 18:32:07;;;;;;;0.10;0.10;;;;;;;20.42;100.00;100140.31;4963428;28;20038;-96
2023/09/15 19:17:25;;;;;;;0.10;0.10;;;;;;;20.28;100.00;100174.25;4951222;28;20047;-94
2023/09/15 19:19:54;;;;;;;0.38;0.38;;;;;;;20.30;100.00;100195.03;4944542;28;20058;-95
2023/09/15 19:22:21;;;;;;;0.10;0.10;;;;;;;20.21;100.00;100192.41;4960045;28;20540;-95
2023/09/15 19:24:49;;;;;;;0.43;0.15;;;;;;;20.24;100.00;100204.69;4963346;28;20058;-93
2023/09/15 19:27:15;;;;;;;0.32;0.25;;;;;;;20.13;100.00;100196.94;4949969;28;20047;-93
2023/09/15 19:29:42;;;;;;;0.20;0.20;;;;;;;19.98;100.00;100179.38;4944950;28;20047;-93
2023/09/15 19:32:11;;;;;;;0.60;0.57;;;;;;;20.00;100.00;100194.50;4960760;28;20137;-93
2023/09/15 19:34:41;;;;;;;0.35;0.35;;;;;;;19.92;100.00;100201.88;4952970;28;20467;-94
2023/09/15 19:37:08;;;;;;;0.55;0.55;;;;;;;19.83;100.00;100198.44;4939668;28;20125;-94
2023/09/15 19:39:37;;;;;;;0.55;0.30;;;;;;;19.72;100.00;100178.63;4961895;28;20086;-94
2023/09/15 19:42:04;;;;;;;0.47;0.47;;;;;;;19.76;100.00;100191.22;4960712;28;20079;-93
2023/09/15 19:44:30;;;;;;;1.88;0.60;;;;;;;19.69;100.00;100186.03;4934131;28;20035;-94
2023/09/15 19:46:57;;;;;;;0.43;0.38;;;;;;;19.72;100.00;100198.31;4924886;28;20082;-94
2023/09/15 19:49:23;;;;;;;0.75;0.75;;;;;;;19.69;100.00;100194.47;4956533;28;20043;-95
2023/09/15 19:51:51;;;;;;;0.70;0.52;;;;;;;19.73;100.00;100199.88;4939318;28;20045;-93
2023/09/15 19:54:17;;;;;;;0.30;0.30;;;;;;;19.54;100.00;100168.47;4942671;28;20055;-95
2023/09/15 19:56:51;;;;;;;1.17;0.47;;;;;;;19.76;100.00;100207.31;4943518;28;20054;-93
2023/09/15 19:59:17;;;;;;;0.35;0.30;;;;;;;19.79;100.00;100200.69;4940955;28;20070;-93
2023/09/15 20:09:52;;;;;;;0.28;0.28;;;;;;;19.72;100.00;100201.13;1463035;26;20046;-91
2023/09/15 20:12:18;;;;;;;1.02;0.28;;;;;;;19.67;100.00;100196.22;4964073;28;20825;-93
2023/09/15 20:14:48;;;;;;;1.42;1.15;;;;;;;19.57;100.00;100195.63;4949445;28;20131;-92
2023/09/15 20:17:15;;;;;;;1.17;0.52;;;;;;;19.43;100.00;100183.19;4941351;28;20046;-92
2023/09/15 20:19:42;;;;;;;0.82;0.70;;;;;;;19.37;100.00;100187.94;4950697;28;20033;-92
2023/09/15 20:22:08;;;;;;;1.00;0.82;;;;;;;19.20;100.00;100184.16;4953129;28;20491;-94
2023/09/15 20:24:34;;;;;;;1.42;0.63;;;;;;;19.15;100.00;100181.28;4945028;28;20407;-95
2023/09/15 20:27:00;;;;;;;2.38;0.85;;;;;;;19.13;100.00;100195.81;4955114;28;20059;-95
2023/09/15 20:29:26;;;;;;;0.50;0.38;;;;;;;18.95;100.00;100194.06;4953414;28;20046;-94
2023/09/15 20:31:52;;;;;;;0.50;0.50;;;;;;;18.91;100.00;100201.94;4959419;28;20154;-91
2023/09/15 20:34:19;;;;;;;0.73;0.73;;;;;;;18.76;100.00;100195.59;4950067;28;20110;-91
2023/09/15 20:36:44;;;;;;;0.68;0.68;;;;;;;18.79;100.00;100205.88;4958242;28;20027;-91
2023/09/15 20:39:10;;;;;;;0.52;0.50;;;;;;;18.67;100.00;100209.78;4941388;28;20498;-90
2023/09/15 20:41:38;;;;;;;0.25;0.25;;;;;;;18.52;100.00;100206.97;4945997;28;20051;-90
2023/09/15 20:44:05;;;;;;;1.02;0.68;;;;;;;18.51;100.00;100216.66;4947235;28;20043;-90
2023/09/15 20:46:31;;;;;;;1.13;0.50;;;;;;;18.36;100.00;100204.66;4957616;28;20047;-91
2023/09/15 20:48:57;;;;;;;0.20;0.20;;;;;;;18.36;100.00;100212.34;4950898;28;20875;-90
2023/09/15 20:51:23;;;;;;;0.68;0.63;;;;;;;18.38;100.00;100210.56;4961489;28;20077;-90
2023/09/15 20:53:53;;;;;;;0.25;0.25;;;;;;;18.30;100.00;100206.63;4961376;28;20035;-90
2023/09/15 20:56:19;;;;;;;0.47;0.47;;;;;;;18.31;100.00;100208.16;4965745;28;20054;-90
2023/09/15 20:58:45;;;;;;;1.25;0.95;;;;;;;18.27;100.00;100215.25;4964302;28;20043;-90
2023/09/15 21:01:11;;;;;;;0.90;0.85;;;;;;;18.12;100.00;100213.19;4962370;28;20043;-90
2023/09/15 21:03:36;;;;;;;0.68;0.68;;;;;;;18.09;100.00;100207.78;4947034;28;20111;-91
2023/09/15 21:06:02;;;;;;;0.85;0.85;;;;;;;18.09;100.00;100219.00;4928003;29;20509;-90
2023/09/15 21:08:28;;;;;;;0.50;0.35;;;;;;;18.07;100.00;100224.34;4949703;28;20092;-90